createdAt,value
2023-04-29T00:00:07.828Z,83.75
2023-04-29T00:03:02.586Z,83.88
2023-04-29T00:05:48.669Z,83.87
2023-04-29T00:08:34.472Z,83.12
2023-04-29T00:11:20.657Z,83.87
2023-04-29T00:14:06.329Z,84.27
2023-04-29T00:16:51.818Z,83.60
2023-04-29T00:19:37.230Z,84.07
2023-04-29T00:22:22.886Z,83.75
2023-04-29T00:25:09.025Z,83.20
2023-04-29T00:27:54.618Z,83.60
2023-04-29T00:30:40.083Z,83.50
2023-04-29T00:33:25.967Z,83.35
2023-04-29T00:36:11.520Z,84.18
2023-04-29T00:38:57.568Z,83.35
2023-04-29T00:41:43.351Z,83.68
2023-04-29T00:44:28.712Z,83.07
2023-04-29T00:47:14.064Z,83.98
2023-04-29T00:49:59.932Z,83.50
2023-04-29T00:52:46.145Z,83.14
2023-04-29T00:55:33.550Z,83.66
2023-04-29T00:58:20.121Z,83.50
2023-04-29T01:01:05.502Z,83.48
2023-04-29T01:03:51.654Z,83.69
2023-04-29T01:06:57.410Z,83.35
2023-04-29T01:10:31.590Z,83.45
2023-04-29T01:13:38.118Z,82.86
2023-04-29T01:16:39.525Z,82.73
2023-04-29T01:19:48.148Z,83.56
2023-04-29T01:22:33.843Z,83.26
2023-04-29T01:25:19.628Z,83.24
2023-04-29T01:28:40.914Z,83.67
2023-04-29T01:31:39.049Z,83.58
2023-04-29T01:34:50.577Z,83.41
2023-04-29T01:37:57.636Z,83.11
2023-04-29T01:40:49.982Z,83.16
2023-04-29T01:43:41.845Z,83.37
2023-04-29T01:46:38.812Z,83.09
2023-04-29T01:49:28.736Z,83.09
2023-04-29T01:52:14.396Z,83.41
2023-04-29T01:55:04.905Z,82.92
2023-04-29T01:57:59.455Z,82.94
2023-04-29T02:01:03.914Z,82.78
2023-04-29T02:03:51.872Z,83.53
2023-04-29T02:06:37.602Z,83.16
2023-04-29T02:09:24.172Z,83.00
2023-04-29T02:12:14.066Z,83.23
2023-04-29T02:15:00.414Z,83.22
2023-04-29T02:17:46.993Z,83.60
2023-04-29T02:20:32.440Z,84.34
2023-04-29T02:23:17.893Z,83.97
2023-04-29T02:26:06.412Z,83.47
2023-04-29T02:28:52.714Z,83.94
2023-04-29T02:31:39.789Z,83.53
2023-04-29T02:34:25.446Z,83.33
2023-04-29T02:37:12.766Z,83.21
2023-04-29T02:39:58.510Z,82.88
2023-04-29T02:42:43.989Z,83.42
2023-04-29T02:45:29.493Z,83.12
2023-04-29T02:48:14.926Z,82.78
2023-04-29T02:51:00.637Z,82.86
2023-04-29T02:53:46.130Z,83.50
2023-04-29T02:56:31.699Z,82.55
2023-04-29T02:59:17.140Z,83.37
2023-04-29T03:02:02.721Z,82.75
2023-04-29T03:04:48.235Z,83.21
2023-04-29T03:07:33.678Z,83.60
2023-04-29T03:10:19.281Z,83.33
2023-04-29T03:13:05.060Z,83.33
2023-04-29T03:15:52.057Z,83.69
2023-04-29T03:18:37.638Z,84.32
2023-04-29T03:21:25.435Z,83.84
2023-04-29T03:24:11.491Z,83.83
2023-04-29T03:26:57.063Z,83.89
2023-04-29T03:29:42.708Z,84.62
2023-04-29T03:32:29.163Z,84.92
2023-04-29T03:35:15.873Z,84.77
2023-04-29T03:38:21.690Z,85.31
2023-04-29T03:41:07.646Z,84.77
2023-04-29T03:43:54.991Z,85.12
2023-04-29T03:46:40.607Z,84.95
2023-04-29T03:49:26.246Z,84.90
2023-04-29T03:52:12.778Z,85.98
2023-04-29T03:54:58.527Z,85.64
2023-04-29T03:57:44.077Z,86.68
2023-04-29T04:00:31.649Z,86.28
2023-04-29T04:03:22.322Z,85.15
2023-04-29T04:06:08.073Z,85.54
2023-04-29T04:08:54.165Z,86.31
2023-04-29T04:11:44.689Z,86.03
2023-04-29T04:14:31.759Z,85.86
2023-04-29T04:17:17.586Z,85.59
2023-04-29T04:20:03.103Z,85.41
2023-04-29T04:22:48.552Z,85.70
2023-04-29T04:25:46.758Z,85.83
2023-04-29T04:28:51.228Z,85.29
2023-04-29T04:31:58.855Z,85.52
2023-04-29T04:34:44.981Z,86.03
2023-04-29T04:37:30.706Z,86.35
2023-04-29T04:40:18.772Z,86.55
2023-04-29T04:43:24.604Z,85.83
2023-04-29T04:46:14.400Z,85.86
2023-04-29T04:49:20.452Z,85.38
2023-04-29T04:52:11.973Z,85.24
2023-04-29T04:54:57.346Z,85.27
2023-04-29T04:57:45.212Z,85.05
2023-04-29T05:00:30.629Z,85.10
2023-04-29T05:03:16.204Z,85.04
2023-04-29T05:06:02.042Z,84.77
2023-04-29T05:08:48.757Z,84.63
2023-04-29T05:11:35.191Z,84.20
2023-04-29T05:14:30.201Z,84.62
2023-04-29T05:17:15.912Z,84.09
2023-04-29T05:20:01.780Z,84.23
2023-04-29T05:22:48.497Z,84.24
2023-04-29T05:25:34.421Z,83.60
2023-04-29T05:28:20.239Z,84.26
2023-04-29T05:31:06.404Z,83.90
2023-04-29T05:33:52.308Z,83.29
2023-04-29T05:36:37.874Z,83.78
2023-04-29T05:39:23.947Z,83.20
2023-04-29T05:42:20.173Z,83.02
2023-04-29T05:45:09.674Z,83.65
2023-04-29T05:47:55.678Z,83.56
2023-04-29T05:50:41.818Z,83.18
2023-04-29T05:53:27.400Z,83.05
2023-04-29T05:56:13.137Z,83.00
2023-04-29T05:58:59.259Z,82.82
2023-04-29T06:01:45.283Z,82.30
2023-04-29T06:04:31.367Z,82.29
2023-04-29T06:07:36.401Z,82.10
2023-04-29T06:10:42.345Z,81.01
2023-04-29T06:13:30.244Z,81.53
2023-04-29T06:16:16.097Z,82.59
2023-04-29T06:19:02.143Z,81.38
2023-04-29T06:21:47.661Z,81.09
2023-04-29T06:24:32.914Z,80.97
2023-04-29T06:27:18.864Z,81.25
2023-04-29T06:30:04.839Z,80.03
2023-04-29T06:32:50.375Z,79.84
2023-04-29T06:35:40.189Z,79.95
2023-04-29T06:38:29.203Z,80.14
2023-04-29T06:41:32.101Z,79.56
2023-04-29T06:44:27.668Z,79.15
2023-04-29T06:47:22.621Z,78.71
2023-04-29T06:50:25.043Z,79.00
2023-04-29T06:53:10.846Z,79.23
2023-04-29T06:55:56.726Z,78.44
2023-04-29T06:58:42.193Z,79.23
2023-04-29T07:01:27.629Z,79.18
2023-04-29T07:04:13.185Z,78.23
2023-04-29T07:06:59.699Z,78.44
2023-04-29T07:09:46.033Z,78.16
2023-04-29T07:12:31.319Z,77.31
2023-04-29T07:15:16.917Z,77.32
2023-04-29T07:18:06.741Z,77.47
2023-04-29T07:20:53.083Z,76.97
2023-04-29T07:23:38.748Z,76.33
2023-04-29T07:26:24.210Z,75.74
2023-04-29T07:29:09.669Z,75.60
2023-04-29T07:31:55.103Z,75.73
2023-04-29T07:34:40.466Z,75.20
2023-04-29T07:37:26.030Z,75.03
2023-04-29T07:40:12.063Z,74.10
2023-04-29T07:42:57.819Z,74.17
2023-04-29T07:45:43.157Z,73.70
2023-04-29T07:48:29.080Z,72.93
2023-04-29T07:51:15.509Z,72.89
2023-04-29T07:54:01.349Z,72.65
2023-04-29T07:56:46.769Z,72.51
2023-04-29T07:59:32.691Z,72.02
2023-04-29T08:02:18.670Z,71.97
2023-04-29T08:05:06.581Z,71.66
2023-04-29T08:07:52.494Z,71.34
2023-04-29T08:10:41.005Z,71.11
2023-04-29T08:13:28.197Z,70.60
2023-04-29T08:16:13.680Z,70.06
2023-04-29T08:18:59.340Z,69.93
2023-04-29T08:21:44.728Z,69.63
2023-04-29T08:24:31.172Z,69.32
2023-04-29T08:27:16.577Z,69.82
2023-04-29T08:30:02.204Z,69.56
2023-04-29T08:32:47.879Z,69.93
2023-04-29T08:35:33.779Z,69.80
2023-04-29T08:38:19.740Z,69.19
2023-04-29T08:41:09.387Z,69.13
2023-04-29T08:43:54.588Z,68.64
2023-04-29T08:46:40.706Z,68.59
2023-04-29T08:49:26.578Z,68.54
2023-04-29T08:52:12.364Z,68.15
2023-04-29T08:54:59.585Z,67.53
2023-04-29T08:57:50.368Z,67.92
2023-04-29T09:00:37.083Z,67.86
2023-04-29T09:03:36.286Z,67.55
2023-04-29T09:06:21.817Z,67.36
2023-04-29T09:09:07.735Z,67.64
2023-04-29T09:11:53.498Z,67.50
2023-04-29T09:14:38.925Z,67.58
2023-04-29T09:17:47.282Z,66.67
2023-04-29T09:20:32.875Z,65.79
2023-04-29T09:23:18.230Z,65.74
2023-04-29T09:26:03.952Z,65.02
2023-04-29T09:29:11.884Z,64.64
2023-04-29T09:31:58.977Z,64.24
2023-04-29T09:34:44.624Z,64.82
2023-04-29T09:37:30.947Z,65.08
2023-04-29T09:40:50.239Z,64.23
2023-04-29T09:43:42.490Z,63.98
2023-04-29T09:46:27.839Z,64.05
2023-04-29T09:49:27.766Z,63.25
2023-04-29T09:52:16.783Z,63.56
2023-04-29T09:55:06.281Z,62.59
2023-04-29T09:57:51.933Z,63.07
2023-04-29T10:00:37.598Z,63.29
2023-04-29T10:03:23.333Z,63.35
2023-04-29T10:06:09.151Z,62.85
2023-04-29T10:08:55.295Z,62.28
2023-04-29T10:11:41.131Z,62.35
2023-04-29T10:14:27.741Z,62.08
2023-04-29T10:17:37.078Z,61.42
2023-04-29T10:20:24.426Z,62.75
2023-04-29T10:23:12.546Z,62.53
2023-04-29T10:26:01.037Z,63.08
2023-04-29T10:28:48.119Z,62.80
2023-04-29T10:31:35.605Z,62.88
2023-04-29T10:34:22.172Z,61.05
2023-04-29T10:37:16.819Z,61.64
2023-04-29T10:40:16.246Z,61.24
2023-04-29T10:43:01.877Z,60.86
2023-04-29T10:45:47.448Z,60.78
2023-04-29T10:48:32.802Z,60.73
2023-04-29T10:51:33.513Z,60.42
2023-04-29T10:54:25.459Z,60.34
2023-04-29T10:57:21.146Z,58.92
2023-04-29T11:00:07.515Z,59.50
2023-04-29T11:02:56.881Z,59.25
2023-04-29T11:05:42.557Z,59.98
2023-04-29T11:08:28.361Z,59.18
2023-04-29T11:11:15.033Z,59.58
2023-04-29T11:14:03.990Z,59.22
2023-04-29T11:16:53.623Z,59.46
2023-04-29T11:19:46.661Z,59.57
2023-04-29T11:22:33.888Z,59.78
2023-04-29T11:25:19.529Z,59.35
2023-04-29T11:28:05.842Z,59.12
2023-04-29T11:30:51.812Z,59.38
2023-04-29T11:33:37.154Z,59.18
2023-04-29T11:36:22.630Z,58.92
2023-04-29T11:39:08.468Z,59.43
2023-04-29T11:42:06.753Z,58.13
2023-04-29T11:44:54.513Z,57.78
2023-04-29T11:47:47.049Z,57.69
2023-04-29T11:50:32.893Z,57.06
2023-04-29T11:53:22.234Z,57.62
2023-04-29T11:56:11.854Z,57.40
2023-04-29T11:58:58.352Z,56.70
2023-04-29T12:01:44.014Z,56.81
2023-04-29T12:04:29.760Z,56.50
2023-04-29T12:07:19.409Z,57.35
2023-04-29T12:10:12.073Z,57.99
2023-04-29T12:12:58.752Z,57.63
2023-04-29T12:15:46.563Z,57.44
2023-04-29T12:18:32.217Z,56.96
2023-04-29T12:21:17.884Z,56.24
2023-04-29T12:24:03.679Z,56.78
2023-04-29T12:26:49.708Z,57.70
2023-04-29T12:29:40.657Z,56.08
2023-04-29T12:32:26.393Z,56.41
2023-04-29T12:35:18.452Z,56.81
2023-04-29T12:38:04.463Z,56.93
2023-04-29T12:40:51.067Z,56.62
2023-04-29T12:43:37.409Z,55.90
2023-04-29T12:46:23.750Z,55.68
2023-04-29T12:49:09.251Z,56.89
2023-04-29T12:51:54.708Z,55.52
2023-04-29T12:54:44.127Z,56.20
2023-04-29T12:57:29.760Z,55.34
2023-04-29T13:00:15.600Z,56.43
2023-04-29T13:03:01.805Z,56.63
2023-04-29T13:05:51.311Z,56.56
2023-04-29T13:08:37.899Z,56.83
2023-04-29T13:11:23.960Z,57.32
2023-04-29T13:14:09.796Z,57.61
2023-04-29T13:16:55.385Z,57.17
2023-04-29T13:19:51.320Z,58.02
2023-04-29T13:22:38.164Z,58.01
2023-04-29T13:25:23.667Z,58.04
2023-04-29T13:28:08.884Z,58.00
2023-04-29T13:30:54.608Z,58.06
2023-04-29T21:48:18.441Z,74.42
2023-04-29T21:51:05.350Z,74.46
2023-04-29T21:53:51.345Z,74.97
2023-04-29T21:56:37.248Z,75.35
2023-04-29T21:59:22.941Z,74.84
2023-04-29T22:02:21.728Z,75.10
2023-04-29T22:05:08.291Z,75.55
2023-04-29T22:07:54.981Z,75.13
2023-04-29T22:10:41.498Z,75.75
2023-04-29T22:13:27.371Z,75.32
2023-04-29T22:16:13.101Z,75.18
2023-04-29T22:18:58.562Z,75.43
2023-04-29T22:21:44.566Z,75.46
2023-04-29T22:24:29.934Z,76.07
2023-04-29T22:27:15.928Z,75.72
2023-04-29T22:30:01.712Z,75.68
2023-04-29T22:32:47.107Z,76.09
2023-04-29T22:35:32.610Z,76.16
2023-04-29T22:38:18.167Z,76.57
2023-04-29T22:41:04.522Z,76.66
2023-04-29T22:43:52.117Z,76.65
2023-04-29T22:46:37.640Z,76.09
2023-04-29T22:49:23.225Z,76.16
2023-04-29T22:52:08.893Z,76.21
2023-04-29T22:54:54.537Z,76.63
2023-04-29T22:57:40.063Z,76.63
2023-04-29T23:00:25.438Z,75.85
2023-04-29T23:03:10.881Z,76.44
2023-04-29T23:06:00.612Z,76.34
2023-04-29T23:08:46.012Z,76.44
2023-04-29T23:11:32.571Z,76.51
2023-04-29T23:14:20.876Z,76.59
2023-04-29T23:17:06.556Z,76.03
2023-04-29T23:19:52.253Z,76.35
2023-04-29T23:22:38.044Z,76.39
2023-04-29T23:25:23.415Z,76.35
2023-04-29T23:28:09.311Z,76.13
2023-04-29T23:30:55.051Z,76.60
2023-04-29T23:33:40.330Z,76.22
2023-04-29T23:36:26.006Z,76.17
2023-04-29T23:39:11.374Z,76.47
2023-04-29T23:41:56.849Z,76.08
2023-04-29T23:44:42.493Z,76.27
2023-04-29T23:47:28.080Z,76.67
2023-04-29T23:50:14.096Z,76.53
2023-04-29T23:52:59.521Z,75.99
2023-04-29T23:55:45.154Z,76.69
2023-04-29T23:58:30.728Z,77.01
